Missoula, MT

3:15 PM MDT on August 20, 2014 (GMT -0600)
Franklin to the Fort | Change Station
CLOSE
Current Station
Personal Weather Station
Location: Missoula, MT
Elevation: 3200 ft
Nearby Weather Stations

Elev 3200 ft 46.86 °N, 114.02 °W | Updated 1 second ago

Clear
Clear
73.0 °F
Feels Like 77 °F
N
9.0
Wind Variable Wind from West
Gusts 13.0 mph

Today
High -- | Low -- °F
--% Chance of Precip.
Yesterday
High -- | Low -- °F
Precip. -- in
6:40 AM 8:37 PM
Waning Crescent, 19% visible
Pressure 29.83 in
Visibility 10.0 miles
Clouds Clear
Heat Index 77 °F
Dew Point 52 °F
Humidity 47%
Rainfall 0.11 in
Snow Depth 0 in
UV 8 out of 12
Pollen 7.30 out of 12
Air Quality Not available.
Flu Activity Not available.
METAR KMSO 202053Z 32011KT 10SM CLR 22/11 A2989 RMK AO2 SLP101 T02220111 58010

More Conditions Fewer Conditions

Pressure 29.83 in
Visibility 10.0 miles
Clouds Clear
Heat Index 77 °F
Dew Point 52 °F
Humidity 47%
Rainfall 0.11 in
Snow Depth 0 in
UV 8 out of 12
Pollen 7.30 out of 12
Air Quality Not available.
Flu Activity Not available.
METAR KMSO 202053Z 32011KT 10SM CLR 22/11 A2989 RMK AO2 SLP101 T02220111 58010

More Conditions Fewer Conditions

10-Day Weather Forecast

Almanac

Astronomy

Aug. 20, 2014 Rise Set
Actual Time 6:40 AM MDT 8:37 PM MDT
Civil Twilight 6:07 AM MDT 9:10 PM MDT
Nautical Twilight 5:27 AM MDT 9:50 PM MDT
Astronomical Twilight 4:42 AM MDT 10:34 PM MDT
Moon 2:16 AM MDT 5:32 PM MDT
Length of Visible Light 15h 02m
Length of Day
13h 57m
Tomorrow will be 3m 5s shorter.
Waning Crescent, 19% of the Moon is Illuminated
Today
Waning Crescent
Aug 25
New
Sep 2
First Quarter
Sep 8
Full
Sep 15
Last Quarter

Today's Extremes

State Highs State Lows

Community

WunderPhotos

Upload Photos

1,745,762 photos uploaded!

WunderBlogs® & News

Nearby

Snow Depth

Station Depth Elevation
Stuart Mountain 0 in 7400 ft
Kraft Creek 1 in 4750 ft
Daly Creek 1 in 5780 ft
Peterson Meadows 0 in 7200 ft
Wood Creek 0 in 5960 ft

Earthquake Activity

City Distance Mag. Time & Date
No recent earthquake activity has been reported nearby.
Minimum magnitude displayed is 2.5.

Coastal Water Temperatures

Place Temperature
No Stations Reporting

Nearby Weather Stations